createdAt,value
2022-09-23T00:06:52.023Z,4.40
2022-09-23T00:23:40.790Z,4.00
2022-09-23T00:40:28.712Z,4.50
2022-09-23T00:57:20.268Z,4.60
2022-09-23T01:14:26.527Z,4.30
2022-09-23T01:31:21.142Z,5.00
2022-09-23T01:48:15.967Z,4.70
2022-09-23T02:05:08.712Z,4.60
2022-09-23T02:22:01.357Z,4.50
2022-09-23T02:38:54.422Z,4.80
2022-09-23T02:55:43.100Z,5.20
2022-09-23T03:12:37.120Z,4.80
2022-09-23T03:29:25.418Z,5.00
2022-09-23T03:46:15.462Z,4.70
2022-09-23T04:03:05.310Z,5.40
2022-09-23T04:19:56.426Z,5.70
2022-09-23T04:36:44.797Z,6.10
2022-09-23T04:53:32.823Z,6.20
2022-09-23T05:10:21.190Z,6.50
2022-09-23T05:27:09.786Z,6.50
2022-09-23T05:44:00.075Z,6.90
2022-09-23T06:00:49.604Z,8.30
2022-09-23T06:17:37.900Z,7.80
2022-09-23T06:34:27.328Z,6.90
2022-09-23T06:51:19.512Z,6.40
2022-09-23T07:08:10.610Z,4.90
2022-09-23T07:24:58.429Z,5.20
2022-09-23T07:41:46.548Z,5.30
2022-09-23T07:58:35.329Z,5.90
2022-09-23T08:15:23.551Z,6.40
2022-09-23T08:32:12.462Z,4.40
2022-09-23T08:49:02.661Z,5.60
2022-09-23T09:05:54.382Z,3.90
2022-09-23T09:22:51.297Z,2.00
2022-09-23T09:39:39.680Z,1.40
2022-09-23T09:56:35.858Z,0.90
2022-09-23T10:13:27.507Z,0.80
2022-09-23T10:30:25.549Z,1.40
2022-09-23T10:47:23.254Z,1.20
2022-09-23T11:04:53.034Z,1.30
2022-09-23T11:22:01.473Z,1.20
2022-09-23T11:38:53.396Z,1.40
2022-09-23T11:55:55.939Z,1.90
2022-09-23T12:12:53.152Z,1.40
2022-09-23T12:29:43.246Z,1.00
2022-09-23T12:46:31.558Z,1.10
2022-09-23T13:03:37.274Z,1.00
2022-09-23T13:20:40.947Z,0.80
2022-09-23T13:37:46.531Z,1.00
2022-09-23T13:54:37.700Z,1.00
2022-09-23T14:11:33.356Z,1.10
2022-09-23T14:28:25.684Z,0.90
2022-09-23T14:45:18.601Z,1.00
2022-09-23T15:02:42.843Z,0.90
2022-09-23T15:19:32.468Z,1.10
2022-09-23T15:36:23.128Z,1.10
2022-09-23T15:53:12.610Z,1.30
2022-09-23T16:10:00.606Z,1.40
2022-09-23T16:26:49.589Z,1.30
2022-09-23T16:43:41.270Z,1.20
2022-09-23T17:00:42.896Z,1.30
2022-09-23T17:17:31.400Z,1.90
2022-09-23T17:34:20.152Z,1.90
2022-09-23T17:51:11.240Z,2.10
2022-09-23T18:08:01.872Z,2.30
2022-09-23T18:24:53.234Z,2.70
2022-09-23T18:41:41.409Z,3.70
2022-09-23T18:58:29.952Z,3.40
2022-09-23T19:15:17.940Z,3.00
2022-09-23T19:32:06.944Z,2.80
2022-09-23T19:48:54.981Z,2.30
2022-09-23T20:05:43.272Z,2.30
2022-09-23T20:22:33.661Z,2.10
2022-09-23T20:39:21.761Z,2.50
2022-09-23T20:56:10.268Z,2.60
2022-09-23T21:12:58.440Z,2.90
2022-09-23T21:29:46.531Z,3.00
2022-09-23T21:46:35.521Z,3.00
2022-09-23T22:03:23.720Z,3.10
2022-09-23T22:20:12.796Z,3.40
2022-09-23T22:37:01.659Z,3.50
2022-09-23T22:53:49.768Z,5.30
2022-09-23T23:10:39.657Z,7.00
2022-09-23T23:27:28.066Z,7.90
2022-09-23T23:44:16.375Z,7.40
